Time;durP1;ratioP1;P1;durP2;ratioP2;P2;SDS_P1;SDS_P2;PMS_P1;PMS_P2;Temp;Humidity;BMP_temperature;BMP_pressure;BME280_temperature;BME280_humidity;BME280_pressure;Samples;Min_cycle;Max_cycle;Signal;HPM_P1;HPM_P2
2023/07/21 00:01:02;;;;;;;;;;;29.60;57.30;;;;;;5086954;28;42905;-74
2023/07/21 00:03:27;;;;;;;;;;;29.60;57.20;;;;;;5086859;28;42866;-74
2023/07/21 00:05:53;;;;;;;;;;;29.60;55.50;;;;;;5087173;28;42814;-75
2023/07/21 00:08:18;;;;;;;;;;;29.50;55.30;;;;;;5086545;28;43672;-74
2023/07/21 00:10:44;;;;;;;;;;;29.50;55.80;;;;;;5086360;28;43001;-85
2023/07/21 00:13:10;;;;;;;;;;;29.50;55.30;;;;;;5088107;27;43668;-83
2023/07/21 00:15:35;;;;;;;;;;;29.50;55.90;;;;;;5107430;27;42970;-79
2023/07/21 00:18:01;;;;;;;;;;;29.60;55.80;;;;;;5107020;27;43336;-74
2023/07/21 00:20:26;;;;;;;;;;;29.50;55.50;;;;;;5107489;27;42874;-79
2023/07/21 00:22:52;;;;;;;;;;;29.50;55.20;;;;;;5106804;27;43003;-78
2023/07/21 00:25:17;;;;;;;;;;;29.50;55.20;;;;;;5107148;27;42995;-74
2023/07/21 00:27:43;;;;;;;;;;;29.50;55.40;;;;;;5105041;27;43316;-84
2023/07/21 00:30:09;;;;;;;;;;;29.40;55.30;;;;;;5106272;27;42912;-84
2023/07/21 00:32:35;;;;;;;;;;;29.40;55.30;;;;;;5106261;27;43705;-74
2023/07/21 00:35:02;;;;;;;;;;;29.40;55.30;;;;;;5106725;27;42895;-78
2023/07/21 00:37:27;;;;;;;;;;;29.40;55.00;;;;;;5107497;27;43522;-83
2023/07/21 00:39:53;;;;;;;;;;;29.40;55.10;;;;;;5106994;27;42869;-81
2023/07/21 00:42:18;;;;;;;;;;;29.50;55.60;;;;;;5106376;27;43505;-79
2023/07/21 00:44:44;;;;;;;;;;;29.40;55.50;;;;;;5106295;27;42990;-74
2023/07/21 00:47:10;;;;;;;;;;;29.40;55.20;;;;;;5106204;27;43257;-76
2023/07/21 00:49:37;;;;;;;;;;;29.40;55.20;;;;;;5106634;27;42848;-74
2023/07/21 00:52:02;;;;;;;;;;;29.40;55.40;;;;;;5106070;27;42966;-85
2023/07/21 00:54:28;;;;;;;;;;;29.40;56.40;;;;;;5106715;27;42873;-85
2023/07/21 00:56:54;;;;;;;;;;;29.40;56.10;;;;;;5106387;27;43565;-83
2023/07/21 00:59:19;;;;;;;;;;;29.40;56.30;;;;;;5106116;27;42949;-73
2023/07/21 01:01:45;;;;;;;;;;;29.40;56.70;;;;;;5105747;27;43579;-74
2023/07/21 01:04:10;;;;;;;;;;;29.40;56.60;;;;;;5106569;27;43098;-74
2023/07/21 01:06:37;;;;;;;;;;;29.40;56.00;;;;;;5105254;27;43050;-77
2023/07/21 01:09:06;;;;;;;;;;;30.00;56.80;;;;;;5104367;27;43057;-79
2023/07/21 01:11:34;;;;;;;;;;;29.40;56.20;;;;;;5105308;27;42938;-78
2023/07/21 01:14:03;;;;;;;;;;;29.30;56.10;;;;;;5105378;27;43039;-74
2023/07/21 01:16:29;;;;;;;;;;;29.30;55.80;;;;;;5105935;27;43535;-81
2023/07/21 01:18:55;;;;;;;;;;;29.20;56.30;;;;;;5105950;27;43160;-76
2023/07/21 01:21:25;;;;;;;;;;;29.20;56.00;;;;;;5104044;27;43131;-84
2023/07/21 01:23:58;;;;;;;;;;;29.20;56.00;;;;;;5105412;27;43027;-82
2023/07/21 01:26:25;;;;;;;;;;;29.30;55.90;;;;;;5105891;27;43592;-82
2023/07/21 01:28:51;;;;;;;;;;;29.20;55.70;;;;;;5105823;27;42946;-84
2023/07/21 01:31:19;;;;;;;;;;;29.20;56.30;;;;;;5105598;27;42958;-84
2023/07/21 01:33:44;;;;;;;;;;;29.30;56.90;;;;;;5105616;27;43004;-81
2023/07/21 01:36:10;;;;;;;;;;;28.90;56.20;;;;;;5105943;27;42978;-76
2023/07/21 01:38:37;;;;;;;;;;;29.20;56.40;;;;;;5105562;27;42998;-84
2023/07/21 01:41:02;;;;;;;;;;;29.20;56.10;;;;;;5106043;27;43885;-74
2023/07/21 01:43:28;;;;;;;;;;;29.30;56.30;;;;;;5105744;27;42888;-85
2023/07/21 01:45:53;;;;;;;;;;;29.20;56.80;;;;;;5105266;27;43400;-77
2023/07/21 01:48:19;;;;;;;;;;;29.30;56.70;;;;;;5105662;27;42804;-74
2023/07/21 01:50:47;;;;;;;;;;;29.20;56.00;;;;;;5104997;27;63359;-74
2023/07/21 01:53:15;;;;;;;;;;;29.30;56.60;;;;;;5105864;27;42787;-78
2023/07/21 01:55:49;;;;;;;;;;;29.30;56.60;;;;;;5105716;27;42866;-83
2023/07/21 01:58:17;;;;;;;;;;;29.30;56.50;;;;;;5105615;27;42829;-77
2023/07/21 02:00:43;;;;;;;;;;;29.30;56.40;;;;;;5105543;27;43530;-85
2023/07/21 02:03:10;;;;;;;;;;;29.30;56.90;;;;;;5092423;27;43326;-74
2023/07/21 02:05:35;;;;;;;;;;;29.30;56.80;;;;;;5084296;28;42997;-74
2023/07/21 02:08:01;;;;;;;;;;;29.30;56.00;;;;;;5084003;28;42842;-82
2023/07/21 02:10:26;;;;;;;;;;;29.30;56.30;;;;;;5104296;27;43022;-85
2023/07/21 02:12:52;;;;;;;;;;;29.30;56.00;;;;;;5104224;27;43074;-78
2023/07/21 02:15:18;;;;;;;;;;;29.20;55.90;;;;;;5105126;27;42843;-74
2023/07/21 02:17:44;;;;;;;;;;;29.30;56.00;;;;;;5104732;27;43408;-75
2023/07/21 02:20:10;;;;;;;;;;;29.30;55.50;;;;;;5104973;27;43039;-83
2023/07/21 02:22:37;;;;;;;;;;;29.30;55.90;;;;;;5104876;27;42913;-84
2023/07/21 02:25:03;;;;;;;;;;;29.30;55.80;;;;;;5105388;27;43398;-78
2023/07/21 02:27:29;;;;;;;;;;;29.30;56.00;;;;;;5104547;27;42972;-85
2023/07/21 02:29:55;;;;;;;;;;;29.20;55.50;;;;;;5104650;27;43596;-80
2023/07/21 02:32:21;;;;;;;;;;;29.20;55.20;;;;;;5105361;27;42894;-74
2023/07/21 02:34:47;;;;;;;;;;;29.20;55.70;;;;;;5103831;27;42980;-85
2023/07/21 02:37:13;;;;;;;;;;;29.30;56.20;;;;;;5105138;27;42784;-78
2023/07/21 02:39:38;;;;;;;;;;;29.20;57.20;;;;;;5104709;27;42858;-83
2023/07/21 02:42:04;;;;;;;;;;;29.20;57.60;;;;;;5105729;27;43021;-85
2023/07/21 02:44:30;;;;;;;;;;;29.20;58.30;;;;;;5105268;27;43520;-84
2023/07/21 02:46:55;;;;;;;;;;;29.20;58.90;;;;;;5104693;27;42933;-75
2023/07/21 02:49:21;;;;;;;;;;;29.20;58.90;;;;;;5105010;27;43257;-86
2023/07/21 02:51:46;;;;;;;;;;;29.20;59.80;;;;;;5107953;27;42924;-75
2023/07/21 02:54:12;;;;;;;;;;;29.10;60.20;;;;;;5106978;27;44196;-74
2023/07/21 02:56:37;;;;;;;;;;;29.00;60.30;;;;;;5108422;27;43050;-80
2023/07/21 02:59:03;;;;;;;;;;;29.00;60.40;;;;;;5107116;27;43387;-80
2023/07/21 03:01:29;;;;;;;;;;;29.00;60.40;;;;;;5108328;27;42974;-79
2023/07/21 03:03:55;;;;;;;;;;;29.10;60.50;;;;;;5107428;27;42967;-83
2023/07/21 03:06:21;;;;;;;;;;;29.10;61.30;;;;;;5107854;27;42973;-74
2023/07/21 03:08:47;;;;;;;;;;;29.10;60.50;;;;;;5107599;27;42958;-76
2023/07/21 03:11:13;;;;;;;;;;;29.10;60.70;;;;;;5107430;27;42841;-74
2023/07/21 03:13:41;;;;;;;;;;;29.00;60.60;;;;;;5107226;27;43066;-75
2023/07/21 03:16:07;;;;;;;;;;;29.00;60.80;;;;;;5107991;27;43033;-76
2023/07/21 03:18:32;;;;;;;;;;;29.00;61.50;;;;;;5105936;27;43459;-74
2023/07/21 03:20:58;;;;;;;;;;;28.90;61.40;;;;;;5107732;27;43263;-74
2023/07/21 03:23:24;;;;;;;;;;;28.90;61.40;;;;;;5107052;27;43386;-74
2023/07/21 03:25:49;;;;;;;;;;;29.00;61.40;;;;;;5107621;27;42801;-79
2023/07/21 03:28:15;;;;;;;;;;;29.10;62.00;;;;;;5107666;27;42909;-85
2023/07/21 03:30:41;;;;;;;;;;;29.00;62.00;;;;;;5107816;27;42817;-82
2023/07/21 03:33:06;;;;;;;;;;;29.00;62.10;;;;;;5108403;27;42834;-83
2023/07/21 03:35:32;;;;;;;;;;;28.90;61.90;;;;;;5108045;27;42846;-85
2023/07/21 03:37:58;;;;;;;;;;;28.90;62.80;;;;;;5108029;27;42885;-74
2023/07/21 03:40:24;;;;;;;;;;;28.80;62.40;;;;;;5108037;27;42876;-76
2023/07/21 03:42:49;;;;;;;;;;;28.90;63.20;;;;;;5107612;27;43678;-80
2023/07/21 03:45:15;;;;;;;;;;;28.90;62.30;;;;;;5107826;27;43003;-75
2023/07/21 03:47:41;;;;;;;;;;;;;;;;;;5102625;27;43511;-76
2023/07/21 03:50:08;;;;;;;;;;;28.90;62.50;;;;;;5106707;27;42977;-82
2023/07/21 03:52:34;;;;;;;;;;;29.00;63.00;;;;;;5084582;27;43433;-78
2023/07/21 03:54:59;;;;;;;;;;;28.90;61.20;;;;;;5095504;27;43605;-82
2023/07/21 03:57:25;;;;;;;;;;;28.90;61.10;;;;;;5106480;27;43483;-77
2023/07/21 03:59:51;;;;;;;;;;;28.90;61.10;;;;;;5106148;27;43023;-76
2023/07/21 04:02:17;;;;;;;;;;;28.90;61.30;;;;;;5105802;27;43497;-75
2023/07/21 04:04:44;;;;;;;;;;;28.90;61.30;;;;;;5105995;27;42959;-74
2023/07/21 04:07:11;;;;;;;;;;;28.90;62.40;;;;;;5106617;27;42992;-75
2023/07/21 04:09:37;;;;;;;;;;;28.90;61.40;;;;;;5106243;27;43079;-74
2023/07/21 04:12:03;;;;;;;;;;;28.90;62.10;;;;;;5106831;27;42970;-75
2023/07/21 04:14:28;;;;;;;;;;;28.80;61.60;;;;;;5106487;27;43091;-79
2023/07/21 04:16:54;;;;;;;;;;;28.80;62.20;;;;;;5105319;27;43053;-84
2023/07/21 04:19:20;;;;;;;;;;;28.80;62.30;;;;;;5092701;27;43096;-75
2023/07/21 04:21:47;;;;;;;;;;;28.80;62.20;;;;;;5103036;27;43869;-75
2023/07/21 04:24:13;;;;;;;;;;;28.70;62.10;;;;;;5104588;27;43202;-79
2023/07/21 04:26:39;;;;;;;;;;;28.70;62.50;;;;;;5103333;27;43374;-74
2023/07/21 04:29:06;;;;;;;;;;;28.70;62.60;;;;;;5094856;27;43183;-75
2023/07/21 04:31:31;;;;;;;;;;;28.80;61.90;;;;;;5097839;27;43219;-78
2023/07/21 04:33:57;;;;;;;;;;;28.90;62.40;;;;;;5104397;27;43102;-76
2023/07/21 04:36:22;;;;;;;;;;;28.80;62.20;;;;;;5105586;27;42915;-74
2023/07/21 04:38:48;;;;;;;;;;;28.90;62.40;;;;;;5106452;27;42901;-84
2023/07/21 04:41:13;;;;;;;;;;;28.80;61.70;;;;;;5106317;27;43465;-74
2023/07/21 04:43:39;;;;;;;;;;;28.80;62.40;;;;;;5106979;27;43030;-74
2023/07/21 04:46:05;;;;;;;;;;;28.70;62.20;;;;;;5106698;27;42974;-79
2023/07/21 04:48:30;;;;;;;;;;;28.80;63.00;;;;;;5106781;27;43152;-80
2023/07/21 04:50:56;;;;;;;;;;;28.80;61.80;;;;;;5106421;27;43458;-80
2023/07/21 04:53:22;;;;;;;;;;;28.80;62.50;;;;;;5105594;27;42999;-88
2023/07/21 04:55:48;;;;;;;;;;;28.80;63.00;;;;;;5106004;27;42959;-90
2023/07/21 04:58:14;;;;;;;;;;;28.80;61.60;;;;;;5106031;27;43037;-75
2023/07/21 05:00:39;;;;;;;;;;;28.80;61.70;;;;;;5105980;27;43755;-78
2023/07/21 05:03:05;;;;;;;;;;;28.90;61.60;;;;;;5106359;27;42972;-81
2023/07/21 05:05:32;;;;;;;;;;;28.80;61.50;;;;;;5106221;27;43012;-77
2023/07/21 05:07:59;;;;;;;;;;;28.90;61.70;;;;;;5106343;27;42944;-88
2023/07/21 05:10:25;;;;;;;;;;;28.90;61.70;;;;;;5106397;27;43014;-91
2023/07/21 05:12:51;;;;;;;;;;;28.90;62.20;;;;;;5105369;27;42834;-74
2023/07/21 05:15:16;;;;;;;;;;;28.90;62.50;;;;;;5106708;27;42948;-84
2023/07/21 05:17:42;;;;;;;;;;;28.90;62.00;;;;;;5106655;27;42903;-92
2023/07/21 05:20:07;;;;;;;;;;;28.90;62.30;;;;;;5106147;27;43890;-80
2023/07/21 05:22:33;;;;;;;;;;;29.00;61.30;;;;;;5106463;27;42939;-91
2023/07/21 05:24:59;;;;;;;;;;;29.00;61.20;;;;;;5106078;27;43316;-76
2023/07/21 05:27:24;;;;;;;;;;;29.10;62.00;;;;;;5104236;27;42987;-82
2023/07/21 05:29:50;;;;;;;;;;;29.00;62.00;;;;;;5105471;27;43324;-75
2023/07/21 05:32:15;;;;;;;;;;;29.00;61.30;;;;;;5105940;27;42740;-92
2023/07/21 05:34:42;;;;;;;;;;;29.00;61.20;;;;;;5105078;27;42970;-87
2023/07/21 05:37:07;;;;;;;;;;;29.10;61.90;;;;;;5112268;27;43062;-76
2023/07/21 05:39:33;;;;;;;;;;;29.10;61.90;;;;;;5116052;27;42972;-88
2023/07/21 05:41:59;;;;;;;;;;;29.10;61.70;;;;;;5116166;27;43120;-77
2023/07/21 05:44:25;;;;;;;;;;;29.10;61.50;;;;;;5105688;27;43276;-89
2023/07/21 05:46:50;;;;;;;;;;;29.00;62.00;;;;;;5105769;27;42966;-88
2023/07/21 05:49:16;;;;;;;;;;;28.90;62.00;;;;;;5105864;27;43020;-87
2023/07/21 05:51:42;;;;;;;;;;;28.90;62.00;;;;;;5105839;27;42986;-91
2023/07/21 05:54:08;;;;;;;;;;;28.90;62.60;;;;;;5105013;27;42890;-85
2023/07/21 05:56:34;;;;;;;;;;;28.90;62.50;;;;;;5104370;27;42995;-90
2023/07/21 05:58:59;;;;;;;;;;;29.00;61.90;;;;;;5103129;27;42913;-76
2023/07/21 06:01:26;;;;;;;;;;;29.00;62.50;;;;;;5105076;27;42936;-91
2023/07/21 06:03:52;;;;;;;;;;;29.00;62.50;;;;;;5105073;27;42929;-87
2023/07/21 06:06:17;;;;;;;;;;;29.00;62.50;;;;;;5100523;27;43008;-92
2023/07/21 06:08:43;;;;;;;;;;;29.00;61.60;;;;;;5102803;27;44208;-90
2023/07/21 06:11:09;;;;;;;;;;;29.10;61.50;;;;;;5105092;27;43005;-80
2023/07/21 06:13:35;;;;;;;;;;;29.10;62.10;;;;;;5105337;27;43548;-85
2023/07/21 06:16:00;;;;;;;;;;;29.10;61.50;;;;;;5105061;27;42888;-87
2023/07/21 06:18:26;;;;;;;;;;;29.20;61.90;;;;;;5105409;27;42970;-88
2023/07/21 06:20:52;;;;;;;;;;;29.20;61.20;;;;;;5103419;27;43142;-74
2023/07/21 06:23:18;;;;;;;;;;;29.30;62.00;;;;;;5103018;27;43335;-75
2023/07/21 06:25:44;;;;;;;;;;;29.30;61.10;;;;;;5106679;27;43020;-75
2023/07/21 06:28:10;;;;;;;;;;;29.30;61.20;;;;;;5108410;27;43439;-88
2023/07/21 06:30:35;;;;;;;;;;;29.40;61.70;;;;;;5102172;27;43271;-84
2023/07/21 06:33:04;;;;;;;;;;;29.40;61.40;;;;;;5107365;27;42947;-83
2023/07/21 06:35:31;;;;;;;;;;;29.40;61.20;;;;;;5105215;27;42987;-75
2023/07/21 06:37:56;;;;;;;;;;;29.40;61.10;;;;;;5108301;27;43306;-75
2023/07/21 06:40:22;;;;;;;;;;;29.30;60.30;;;;;;5095472;27;43076;-75
2023/07/21 06:42:48;;;;;;;;;;;29.40;60.00;;;;;;5095181;27;43017;-80
2023/07/21 06:45:14;;;;;;;;;;;29.40;59.30;;;;;;5095892;27;42986;-80
2023/07/21 06:47:39;;;;;;;;;;;29.30;59.20;;;;;;5106088;27;43395;-75
2023/07/21 06:50:05;;;;;;;;;;;29.40;59.60;;;;;;5101568;27;43718;-76
2023/07/21 06:52:30;;;;;;;;;;;29.40;59.30;;;;;;5103434;27;43898;-77
2023/07/21 06:54:58;;;;;;;;;;;29.40;59.80;;;;;;5104145;27;43182;-83
2023/07/21 06:57:24;;;;;;;;;;;29.40;59.10;;;;;;5103093;27;43363;-79
2023/07/21 06:59:49;;;;;;;;;;;29.40;59.00;;;;;;5105279;27;43155;-85
2023/07/21 07:02:15;;;;;;;;;;;29.40;59.60;;;;;;5107820;27;42908;-78
2023/07/21 07:04:41;;;;;;;;;;;29.40;59.10;;;;;;5104320;27;42908;-78
2023/07/21 07:07:07;;;;;;;;;;;29.50;59.60;;;;;;5106250;27;43517;-77
2023/07/21 07:09:33;;;;;;;;;;;29.40;59.60;;;;;;5106759;27;42911;-77
2023/07/21 07:11:58;;;;;;;;;;;29.40;59.10;;;;;;5108551;27;43151;-77
2023/07/21 07:14:24;;;;;;;;;;;29.50;59.60;;;;;;5106724;27;43229;-76
2023/07/21 07:16:50;;;;;;;;;;;29.40;59.00;;;;;;5107086;27;43692;-76
2023/07/21 07:19:16;;;;;;;;;;;29.50;59.40;;;;;;5101063;27;43089;-75
2023/07/21 07:21:42;;;;;;;;;;;29.50;59.30;;;;;;5102094;27;42910;-79
2023/07/21 07:24:09;;;;;;;;;;;29.50;59.00;;;;;;5101594;27;43059;-81
2023/07/21 07:26:35;;;;;;;;;;;29.50;58.10;;;;;;5107002;27;44024;-77
2023/07/21 07:29:03;;;;;;;;;;;29.60;58.40;;;;;;5107127;27;42975;-77
2023/07/21 07:31:29;;;;;;;;;;;29.50;58.30;;;;;;5106461;27;42900;-84
2023/07/21 07:33:55;;;;;;;;;;;29.50;57.40;;;;;;5107323;27;42841;-75
2023/07/21 07:36:20;;;;;;;;;;;29.50;58.00;;;;;;5105889;27;42995;-75
2023/07/21 07:38:46;;;;;;;;;;;29.50;57.70;;;;;;5107143;27;42944;-75
2023/07/21 07:41:12;;;;;;;;;;;29.50;57.30;;;;;;5106276;27;42952;-83
2023/07/21 07:43:38;;;;;;;;;;;29.40;56.70;;;;;;5105977;27;43040;-83
2023/07/21 07:46:07;;;;;;;;;;;29.50;55.50;;;;;;5106017;27;43071;-75
2023/07/21 07:48:35;;;;;;;;;;;29.50;55.50;;;;;;5104297;27;43110;-75
2023/07/21 07:51:02;;;;;;;;;;;29.50;55.90;;;;;;5101403;27;42946;-75
2023/07/21 07:53:28;;;;;;;;;;;29.50;55.80;;;;;;5106760;27;42941;-75
2023/07/21 07:55:53;;;;;;;;;;;29.50;55.20;;;;;;5106673;27;43450;-75
2023/07/21 07:58:19;;;;;;;;;;;29.50;55.30;;;;;;5106306;27;42845;-75
2023/07/21 08:00:45;;;;;;;;;;;29.40;54.90;;;;;;5106383;27;42932;-75
2023/07/21 08:03:11;;;;;;;;;;;29.50;54.30;;;;;;5106467;27;43035;-74
2023/07/21 08:05:37;;;;;;;;;;;29.50;54.70;;;;;;5105727;27;43002;-79
2023/07/21 08:08:03;;;;;;;;;;;29.00;53.90;;;;;;5106179;27;43082;-75
2023/07/21 08:10:28;;;;;;;;;;;29.50;53.70;;;;;;5106103;27;43450;-75
2023/07/21 08:12:58;;;;;;;;;;;29.50;53.70;;;;;;5106382;27;42983;-76
2023/07/21 08:15:24;;;;;;;;;;;29.50;53.80;;;;;;5106427;27;42952;-75
2023/07/21 08:17:49;;;;;;;;;;;29.50;53.90;;;;;;5106510;27;42970;-75
2023/07/21 08:20:16;;;;;;;;;;;29.50;53.20;;;;;;5105774;27;42969;-76
2023/07/21 08:22:42;;;;;;;;;;;29.50;54.00;;;;;;5106024;27;42939;-75
2023/07/21 08:25:07;;;;;;;;;;;29.60;54.50;;;;;;5106117;27;42974;-75
2023/07/21 08:27:35;;;;;;;;;;;29.50;54.20;;;;;;5102864;27;43216;-76
2023/07/21 08:30:01;;;;;;;;;;;29.50;53.70;;;;;;5102434;27;43713;-75
2023/07/21 08:32:27;;;;;;;;;;;29.50;54.20;;;;;;5106663;27;42825;-76
2023/07/21 08:34:54;;;;;;;;;;;29.60;54.60;;;;;;5104126;27;43723;-75
2023/07/21 08:37:19;;;;;;;;;;;29.60;54.60;;;;;;5104000;27;43054;-75
2023/07/21 08:39:45;;;;;;;;;;;29.60;54.80;;;;;;5100209;27;43423;-75
2023/07/21 08:42:12;;;;;;;;;;;29.60;54.70;;;;;;5102804;27;42948;-74
2023/07/21 08:44:38;;;;;;;;;;;29.70;54.30;;;;;;5101517;27;42998;-74
2023/07/21 08:47:04;;;;;;;;;;;29.70;54.00;;;;;;5101239;27;42964;-75
2023/07/21 08:49:30;;;;;;;;;;;29.60;53.50;;;;;;5105082;27;43031;-75
2023/07/21 08:51:55;;;;;;;;;;;29.60;53.30;;;;;;5106023;27;43024;-75
2023/07/21 08:54:21;;;;;;;;;;;29.60;53.30;;;;;;5105491;27;43988;-76
2023/07/21 08:56:47;;;;;;;;;;;29.60;53.00;;;;;;5105589;27;42895;-75
2023/07/21 08:59:12;;;;;;;;;;;29.60;53.10;;;;;;5104874;27;43067;-82
2023/07/21 09:01:38;;;;;;;;;;;29.60;52.70;;;;;;5105957;27;43021;-74
2023/07/21 09:04:15;;;;;;;;;;;29.60;53.60;;;;;;5105993;27;43008;-75
2023/07/21 09:06:41;;;;;;;;;;;29.60;53.80;;;;;;5104830;27;43159;-75
2023/07/21 09:09:16;;;;;;;;;;;29.60;53.90;;;;;;5105786;27;43650;-76
2023/07/21 09:11:41;;;;;;;;;;;29.60;53.70;;;;;;5099325;27;43134;-75
2023/07/21 09:14:07;;;;;;;;;;;29.60;52.80;;;;;;5101128;27;43248;-74
2023/07/21 09:16:33;;;;;;;;;;;29.60;53.40;;;;;;5103596;27;42872;-75
2023/07/21 09:18:58;;;;;;;;;;;29.60;54.10;;;;;;5100500;27;43516;-75
2023/07/21 09:21:24;;;;;;;;;;;29.60;53.50;;;;;;5098550;27;42872;-74
2023/07/21 09:23:50;;;;;;;;;;;29.60;54.00;;;;;;5099598;27;43625;-75
2023/07/21 09:26:22;;;;;;;;;;;29.70;53.40;;;;;;5105099;27;42975;-75
2023/07/21 09:28:48;;;;;;;;;;;29.70;53.50;;;;;;5104527;27;42987;-76
2023/07/21 09:31:14;;;;;;;;;;;29.70;53.70;;;;;;5105265;27;42959;-79
2023/07/21 09:33:40;;;;;;;;;;;29.70;53.30;;;;;;5106376;27;43822;-75
2023/07/21 09:36:14;;;;;;;;;;;29.70;53.70;;;;;;5109691;27;43247;-75
2023/07/21 09:38:39;;;;;;;;;;;29.70;53.40;;;;;;5105962;27;43795;-79
2023/07/21 09:41:06;;;;;;;;;;;29.60;52.60;;;;;;5115112;27;43002;-75
2023/07/21 09:43:32;;;;;;;;;;;29.70;53.10;;;;;;5114324;27;42891;-75
2023/07/21 09:46:05;;;;;;;;;;;29.70;52.80;;;;;;5112047;27;42974;-78
2023/07/21 09:48:31;;;;;;;;;;;29.70;52.60;;;;;;5113500;27;42977;-76
2023/07/21 09:50:58;;;;;;;;;;;29.70;52.70;;;;;;5109635;27;43006;-78
2023/07/21 09:53:28;;;;;;;;;;;29.70;52.80;;;;;;5085147;28;43663;-82
2023/07/21 09:55:55;;;;;;;;;;;29.70;52.80;;;;;;5085225;28;42776;-75
2023/07/21 09:58:22;;;;;;;;;;;29.60;52.80;;;;;;5086233;27;43081;-79
2023/07/21 10:00:48;;;;;;;;;;;29.40;52.60;;;;;;5095560;27;42922;-83
2023/07/21 10:03:14;;;;;;;;;;;29.40;52.80;;;;;;5098746;27;43411;-83
2023/07/21 10:05:40;;;;;;;;;;;29.30;53.10;;;;;;5086297;27;42805;-78
2023/07/21 10:08:06;;;;;;;;;;;29.20;53.40;;;;;;5084600;28;42921;-76
2023/07/21 10:10:32;;;;;;;;;;;29.20;53.40;;;;;;5084747;28;42881;-83
2023/07/21 10:13:03;;;;;;;;;;;29.20;53.70;;;;;;5084764;28;42953;-74
2023/07/21 10:15:29;;;;;;;;;;;29.30;54.30;;;;;;5086400;27;42843;-80
2023/07/21 10:17:58;;;;;;;;;;;29.40;54.10;;;;;;5095580;27;43576;-82
2023/07/21 10:20:42;;;;;;;;;;;29.50;53.60;;;;;;5087702;27;42928;-81
2023/07/21 10:23:08;;;;;;;;;;;29.60;53.90;;;;;;5092551;27;43623;-75
2023/07/21 10:25:56;;;;;;;;;;;29.60;53.50;;;;;;5105247;27;42877;-81
2023/07/21 10:28:22;;;;;;;;;;;29.60;53.90;;;;;;5079177;27;43027;-83
2023/07/21 10:30:48;;;;;;;;;;;29.60;54.10;;;;;;5084084;27;43222;-83
2023/07/21 10:33:17;;;;;;;;;;;29.60;53.50;;;;;;5084304;28;42874;-82
2023/07/21 10:35:42;;;;;;;;;;;29.70;53.60;;;;;;5083971;28;42898;-83
2023/07/21 10:38:27;;;;;;;;;;;29.80;54.20;;;;;;5082409;28;45114;-82
2023/07/21 10:40:52;;;;;;;;;;;29.80;54.10;;;;;;5084243;28;42976;-81
2023/07/21 10:43:18;;;;;;;;;;;29.80;54.00;;;;;;5083130;28;42958;-82
2023/07/21 10:45:49;;;;;;;;;;;29.80;54.60;;;;;;5084798;27;42975;-83
2023/07/21 10:48:16;;;;;;;;;;;29.80;54.90;;;;;;5098149;27;42991;-83
2023/07/21 10:50:47;;;;;;;;;;;29.80;54.80;;;;;;5104059;27;42873;-83
2023/07/21 10:53:12;;;;;;;;;;;29.80;54.50;;;;;;5102846;27;44516;-75
2023/07/21 10:55:38;;;;;;;;;;;29.80;53.50;;;;;;5102933;27;42907;-75
2023/07/21 10:58:04;;;;;;;;;;;29.80;53.30;;;;;;5103920;27;42940;-80
2023/07/21 11:00:30;;;;;;;;;;;29.60;52.80;;;;;;5104472;27;43096;-83
2023/07/21 11:02:56;;;;;;;;;;;29.70;53.40;;;;;;5102199;27;42878;-79
2023/07/21 11:05:22;;;;;;;;;;;29.60;53.00;;;;;;5098918;27;42910;-75
2023/07/21 11:07:48;;;;;;;;;;;29.50;53.10;;;;;;5101934;27;43308;-80
2023/07/21 11:10:14;;;;;;;;;;;29.60;53.60;;;;;;5104252;27;42977;-83
2023/07/21 11:12:40;;;;;;;;;;;29.60;52.90;;;;;;5107549;27;42966;-81
2023/07/21 11:15:08;;;;;;;;;;;29.70;52.70;;;;;;5108641;27;42829;-82
2023/07/21 11:17:34;;;;;;;;;;;29.70;53.20;;;;;;5107967;27;43384;-83
2023/07/21 11:20:06;;;;;;;;;;;29.70;53.30;;;;;;5107604;27;42851;-80
2023/07/21 11:22:33;;;;;;;;;;;29.70;53.00;;;;;;5107689;27;42920;-82
2023/07/21 11:25:09;;;;;;;;;;;29.70;53.20;;;;;;5107017;27;42908;-74
2023/07/21 11:27:35;;;;;;;;;;;29.70;52.30;;;;;;5107591;27;42946;-77
2023/07/21 11:30:01;;;;;;;;;;;29.70;52.20;;;;;;5108221;27;43074;-83
2023/07/21 11:32:27;;;;;;;;;;;29.50;51.30;;;;;;5108074;27;43309;-81
2023/07/21 11:34:56;;;;;;;;;;;29.50;51.50;;;;;;5107969;27;42852;-75
2023/07/21 11:37:21;;;;;;;;;;;29.40;50.90;;;;;;5107220;27;42935;-80
2023/07/21 11:39:54;;;;;;;;;;;29.30;51.70;;;;;;5108647;27;42768;-82
2023/07/21 11:42:20;;;;;;;;;;;28.90;52.00;;;;;;5107813;27;43474;-75
2023/07/21 11:44:45;;;;;;;;;;;28.90;52.10;;;;;;5107485;27;42983;-80
2023/07/21 11:47:12;;;;;;;;;;;28.70;53.00;;;;;;5107324;27;43061;-76
2023/07/21 11:49:41;;;;;;;;;;;28.60;52.70;;;;;;5107957;27;42951;-82
2023/07/21 11:52:07;;;;;;;;;;;28.60;53.00;;;;;;5107622;27;42925;-82
2023/07/21 11:54:38;;;;;;;;;;;28.60;52.60;;;;;;5107928;27;42962;-82
2023/07/21 11:57:04;;;;;;;;;;;28.70;53.20;;;;;;5107515;27;42889;-82
2023/07/21 11:59:30;;;;;;;;;;;28.70;53.90;;;;;;5107021;27;43083;-82
2023/07/21 12:01:56;;;;;;;;;;;28.80;54.20;;;;;;5106895;27;42828;-78
2023/07/21 12:04:22;;;;;;;;;;;28.80;54.50;;;;;;5107701;27;43014;-82
2023/07/21 12:06:48;;;;;;;;;;;28.90;54.10;;;;;;5106728;27;43000;-80
2023/07/21 12:09:14;;;;;;;;;;;28.90;54.60;;;;;;5107334;27;42940;-83
2023/07/21 12:11:39;;;;;;;;;;;29.00;54.70;;;;;;5107448;27;43509;-78
2023/07/21 12:14:05;;;;;;;;;;;29.00;54.30;;;;;;5107723;27;42958;-82
2023/07/21 12:16:31;;;;;;;;;;;29.00;54.70;;;;;;5107459;27;42992;-76
2023/07/21 12:18:57;;;;;;;;;;;29.10;54.40;;;;;;5107507;27;43017;-76
2023/07/21 12:21:23;;;;;;;;;;;28.80;53.50;;;;;;5107254;27;42930;-80
2023/07/21 12:23:48;;;;;;;;;;;29.10;53.60;;;;;;5107137;27;42898;-81
2023/07/21 12:26:14;;;;;;;;;;;29.10;53.60;;;;;;5107071;27;43008;-79
2023/07/21 12:28:41;;;;;;;;;;;29.10;52.60;;;;;;5107452;27;42916;-78
2023/07/21 12:31:06;;;;;;;;;;;29.10;52.60;;;;;;5105509;27;44451;-76
2023/07/21 12:33:34;;;;;;;;;;;29.10;52.50;;;;;;5107326;27;43067;-74
2023/07/21 12:36:00;;;;;;;;;;;29.10;53.00;;;;;;5107532;27;43451;-83
2023/07/21 12:38:26;;;;;;;;;;;29.10;52.90;;;;;;5107441;27;42992;-74
2023/07/21 12:40:52;;;;;;;;;;;29.10;52.90;;;;;;5106812;27;42857;-80
2023/07/21 12:43:18;;;;;;;;;;;29.10;52.20;;;;;;5106605;27;42890;-80
2023/07/21 12:45:43;;;;;;;;;;;29.20;52.30;;;;;;5107066;27;42938;-82
2023/07/21 12:48:09;;;;;;;;;;;29.20;52.30;;;;;;5106556;27;42904;-78
2023/07/21 12:50:34;;;;;;;;;;;29.10;51.90;;;;;;5106799;27;42983;-82
2023/07/21 12:53:00;;;;;;;;;;;29.20;52.40;;;;;;5107354;27;43151;-82
2023/07/21 12:55:26;;;;;;;;;;;29.10;51.80;;;;;;5106812;27;43044;-82
2023/07/21 12:57:52;;;;;;;;;;;29.10;52.30;;;;;;5104766;27;43092;-80
2023/07/21 13:00:17;;;;;;;;;;;29.20;52.30;;;;;;5106320;27;43819;-77
2023/07/21 13:02:43;;;;;;;;;;;29.20;51.90;;;;;;5106590;27;42944;-75
2023/07/21 13:05:11;;;;;;;;;;;29.20;51.70;;;;;;5106190;27;42975;-77
2023/07/21 13:07:39;;;;;;;;;;;29.30;51.90;;;;;;5106989;27;42882;-82
2023/07/21 13:10:05;;;;;;;;;;;29.30;52.00;;;;;;5106460;27;42940;-80
2023/07/21 13:12:30;;;;;;;;;;;29.30;51.90;;;;;;5106443;27;42775;-79
2023/07/21 13:14:56;;;;;;;;;;;29.30;52.10;;;;;;5106343;27;42834;-82
2023/07/21 13:17:21;;;;;;;;;;;29.30;52.10;;;;;;5106094;27;43027;-74
2023/07/21 13:19:48;;;;;;;;;;;29.30;51.50;;;;;;5106276;27;43732;-75
2023/07/21 13:22:14;;;;;;;;;;;29.30;51.60;;;;;;5105926;27;42973;-77
2023/07/21 13:24:40;;;;;;;;;;;29.40;51.20;;;;;;5106051;27;42924;-76
2023/07/21 13:27:05;;;;;;;;;;;29.40;51.70;;;;;;5106046;27;43056;-75
2023/07/21 13:29:31;;;;;;;;;;;29.40;51.20;;;;;;5106149;27;42949;-82
2023/07/21 13:31:57;;;;;;;;;;;29.40;51.10;;;;;;5106350;27;42855;-74
2023/07/21 13:34:22;;;;;;;;;;;29.30;51.10;;;;;;5105718;27;44107;-82
2023/07/21 13:36:48;;;;;;;;;;;29.40;51.70;;;;;;5106150;27;42901;-74
2023/07/21 13:39:14;;;;;;;;;;;29.30;51.20;;;;;;5105714;27;43862;-75
2023/07/21 13:41:40;;;;;;;;;;;29.30;51.20;;;;;;5105916;27;42878;-75
2023/07/21 13:44:05;;;;;;;;;;;29.30;51.80;;;;;;5106380;27;42993;-76
2023/07/21 13:46:31;;;;;;;;;;;29.20;51.50;;;;;;5105687;27;42921;-75
2023/07/21 13:48:56;;;;;;;;;;;29.30;51.90;;;;;;5105517;27;42956;-75
2023/07/21 13:51:22;;;;;;;;;;;29.30;51.50;;;;;;5106078;27;42960;-75
2023/07/21 13:53:48;;;;;;;;;;;29.30;50.60;;;;;;5105949;27;42924;-75
2023/07/21 13:56:14;;;;;;;;;;;29.30;51.00;;;;;;5105838;27;43041;-75
2023/07/21 13:58:40;;;;;;;;;;;29.30;50.60;;;;;;5105663;27;43420;-75
2023/07/21 14:01:06;;;;;;;;;;;29.30;51.30;;;;;;5105799;27;42934;-74
2023/07/21 14:03:32;;;;;;;;;;;29.30;51.40;;;;;;5105626;27;43078;-75
2023/07/21 14:05:57;;;;;;;;;;;29.30;50.80;;;;;;5105776;27;42901;-74
2023/07/21 14:08:23;;;;;;;;;;;29.30;50.90;;;;;;5105407;27;42900;-74
2023/07/21 14:10:49;;;;;;;;;;;29.40;51.50;;;;;;5105974;27;42913;-75
2023/07/21 14:13:15;;;;;;;;;;;29.40;51.60;;;;;;5105934;27;42916;-75